createdAt,value
2019-06-26T00:00:44.535Z,21.00
2019-06-26T00:03:19.802Z,21.00
2019-06-26T00:05:55.557Z,21.00
2019-06-26T00:08:29.942Z,21.00
2019-06-26T00:11:05.651Z,21.00
2019-06-26T00:13:41.742Z,21.00
2019-06-26T00:16:16.308Z,21.00
2019-06-26T00:18:51.237Z,21.00
2019-06-26T00:21:25.677Z,21.10
2019-06-26T00:24:00.459Z,21.10
2019-06-26T00:26:35.118Z,21.20
2019-06-26T00:29:10.862Z,21.20
2019-06-26T00:31:46.258Z,21.20
2019-06-26T00:34:22.005Z,21.30
2019-06-26T00:36:56.576Z,21.30
2019-06-26T00:39:39.807Z,21.30
2019-06-26T00:42:14.089Z,21.30
2019-06-26T00:44:50.065Z,21.40
2019-06-26T00:47:24.582Z,21.30
2019-06-26T00:49:59.842Z,21.40
2019-06-26T00:52:34.325Z,21.30
2019-06-26T00:55:09.602Z,21.40
2019-06-26T00:57:45.345Z,21.40
2019-06-26T01:00:20.079Z,21.30
2019-06-26T01:02:54.516Z,21.30
2019-06-26T01:05:28.988Z,21.30
2019-06-26T01:08:03.357Z,21.30
2019-06-26T01:10:37.868Z,21.40
2019-06-26T01:13:13.265Z,21.40
2019-06-26T01:15:47.983Z,21.50
2019-06-26T01:18:23.703Z,21.50
2019-06-26T01:20:59.119Z,21.50
2019-06-26T01:23:34.440Z,21.50
2019-06-26T01:26:09.233Z,21.60
2019-06-26T01:28:43.856Z,21.70
2019-06-26T01:31:18.651Z,21.70
2019-06-26T01:33:53.195Z,21.70
2019-06-26T01:36:27.687Z,21.70
2019-06-26T01:39:02.265Z,21.80
2019-06-26T01:41:37.857Z,21.80
2019-06-26T01:44:15.386Z,21.80
2019-06-26T01:46:49.154Z,21.80
2019-06-26T01:49:23.851Z,21.90
2019-06-26T01:52:01.379Z,22.00
2019-06-26T01:54:36.449Z,22.10
2019-06-26T01:57:11.964Z,22.20
2019-06-26T01:59:46.572Z,22.20
2019-06-26T02:02:21.593Z,22.30
2019-06-26T02:04:59.109Z,22.30
2019-06-26T02:07:34.051Z,22.30
2019-06-26T02:10:12.648Z,22.30
2019-06-26T02:12:47.464Z,22.30
2019-06-26T02:15:21.942Z,22.30
2019-06-26T02:17:57.763Z,22.50
2019-06-26T02:20:33.906Z,22.60
2019-06-26T02:23:08.587Z,22.60
2019-06-26T02:25:43.269Z,22.60
2019-06-26T02:28:18.133Z,22.70
2019-06-26T02:30:53.431Z,22.70
2019-06-26T02:33:28.783Z,22.80
2019-06-26T02:36:04.816Z,22.80
2019-06-26T02:38:48.302Z,22.80
2019-06-26T02:41:24.256Z,22.90
2019-06-26T02:43:58.977Z,22.90
2019-06-26T02:46:33.421Z,23.00
2019-06-26T02:49:07.858Z,23.00
2019-06-26T02:51:42.370Z,23.10
2019-06-26T02:54:16.976Z,23.20
2019-06-26T02:56:54.153Z,23.20
2019-06-26T02:59:28.809Z,23.10
2019-06-26T03:02:04.563Z,23.10
2019-06-26T03:04:39.068Z,23.10
2019-06-26T03:07:21.445Z,23.20
2019-06-26T03:09:58.043Z,23.10
2019-06-26T03:12:32.337Z,23.10
2019-06-26T03:15:13.537Z,23.10
2019-06-26T03:17:55.245Z,23.10
2019-06-26T03:20:34.430Z,23.10
2019-06-26T03:23:09.208Z,23.20
2019-06-26T03:25:45.292Z,23.30
2019-06-26T03:28:19.817Z,23.40
2019-06-26T03:30:54.122Z,23.60
2019-06-26T03:33:28.872Z,23.60
2019-06-26T03:36:07.578Z,23.80
2019-06-26T03:38:42.140Z,23.90
2019-06-26T03:41:18.343Z,24.10
2019-06-26T03:43:54.561Z,24.30
2019-06-26T03:46:29.139Z,24.50
2019-06-26T03:49:04.137Z,24.50
2019-06-26T03:51:39.519Z,24.60
2019-06-26T03:54:14.748Z,24.60
2019-06-26T03:56:50.816Z,24.60
2019-06-26T03:59:26.772Z,24.70
2019-06-26T04:02:02.382Z,24.70
2019-06-26T04:04:38.185Z,24.70
2019-06-26T04:07:12.567Z,24.70
2019-06-26T04:09:46.917Z,24.80
2019-06-26T04:12:21.527Z,24.90
2019-06-26T04:14:57.530Z,24.90
2019-06-26T04:17:32.425Z,25.00
2019-06-26T04:20:11.200Z,25.10
2019-06-26T04:22:47.694Z,25.10
2019-06-26T04:25:22.791Z,25.20
2019-06-26T04:27:57.609Z,25.30
2019-06-26T04:30:34.630Z,25.30
2019-06-26T04:33:09.134Z,25.40
2019-06-26T04:35:45.555Z,25.40
2019-06-26T04:38:20.163Z,25.40
2019-06-26T04:40:54.645Z,25.50
2019-06-26T04:43:32.588Z,25.50
2019-06-26T04:46:07.832Z,25.50
2019-06-26T04:48:45.308Z,25.50
2019-06-26T04:51:24.411Z,25.40
2019-06-26T04:54:01.120Z,25.40
2019-06-26T04:56:35.749Z,25.40
2019-06-26T04:59:14.365Z,25.40
2019-06-26T05:01:51.275Z,25.20
2019-06-26T05:04:29.939Z,25.20
2019-06-26T05:07:05.141Z,25.20
2019-06-26T05:09:40.665Z,25.20
2019-06-26T05:12:15.372Z,25.10
2019-06-26T05:14:51.284Z,25.10
2019-06-26T05:17:27.273Z,25.10
2019-06-26T05:20:12.210Z,25.10
2019-06-26T05:22:50.375Z,25.10
2019-06-26T05:25:24.880Z,25.10
2019-06-26T05:28:00.424Z,25.10
2019-06-26T05:30:35.600Z,25.10
2019-06-26T05:33:16.924Z,25.00
2019-06-26T05:35:52.795Z,25.00
2019-06-26T05:38:29.802Z,25.00
2019-06-26T05:41:05.595Z,24.90
2019-06-26T05:43:43.093Z,24.90
2019-06-26T05:46:30.670Z,24.90
2019-06-26T05:48:57.882Z,25.00
2019-06-26T05:51:33.895Z,24.90
2019-06-26T05:54:10.306Z,24.90
2019-06-26T05:56:45.576Z,25.00
2019-06-26T05:59:20.357Z,24.90
2019-06-26T06:01:54.753Z,25.00
2019-06-26T06:04:30.361Z,25.00
2019-06-26T06:07:05.849Z,25.10
2019-06-26T06:09:41.536Z,25.10
2019-06-26T06:12:16.150Z,25.00
2019-06-26T06:14:50.742Z,24.90
2019-06-26T06:17:25.275Z,24.80
2019-06-26T06:19:59.582Z,24.70
2019-06-26T06:22:34.583Z,24.60
2019-06-26T06:25:10.335Z,24.60
2019-06-26T06:27:44.910Z,24.50
2019-06-26T06:30:19.463Z,24.50
2019-06-26T06:32:54.793Z,24.50
2019-06-26T06:35:33.492Z,24.50
2019-06-26T06:38:08.156Z,24.50
2019-06-26T06:40:46.593Z,24.40
2019-06-26T06:43:21.236Z,24.40
2019-06-26T06:45:55.757Z,24.50
2019-06-26T06:48:31.985Z,24.50
2019-06-26T06:51:14.269Z,24.50
2019-06-26T06:53:48.758Z,24.40
2019-06-26T06:56:24.256Z,24.40
2019-06-26T06:59:06.735Z,24.30
2019-06-26T07:01:43.608Z,24.40
2019-06-26T07:04:21.614Z,24.40
2019-06-26T07:06:58.827Z,24.40
2019-06-26T07:09:32.485Z,24.40
2019-06-26T07:12:09.236Z,24.30
2019-06-26T07:14:45.150Z,24.20
2019-06-26T07:17:21.445Z,24.10
2019-06-26T07:19:57.066Z,24.10
2019-06-26T07:22:32.980Z,24.10
2019-06-26T07:25:07.735Z,24.00
2019-06-26T07:27:42.274Z,23.90
2019-06-26T07:30:17.928Z,23.90
2019-06-26T07:32:53.541Z,23.90
2019-06-26T07:35:29.252Z,23.90
2019-06-26T07:38:04.560Z,24.00
2019-06-26T07:40:42.541Z,24.00
2019-06-26T07:43:20.633Z,24.10
2019-06-26T07:45:58.939Z,24.10
2019-06-26T07:48:33.866Z,24.10
2019-06-26T07:51:10.344Z,24.10
2019-06-26T07:53:47.187Z,24.00
2019-06-26T07:56:22.118Z,24.10
2019-06-26T07:58:59.033Z,24.10
2019-06-26T08:01:40.206Z,24.10
2019-06-26T08:04:16.009Z,24.20
2019-06-26T08:06:53.748Z,24.10
2019-06-26T08:09:28.301Z,24.20
2019-06-26T08:12:06.842Z,24.10
2019-06-26T08:14:42.342Z,24.10
2019-06-26T08:17:17.091Z,24.10
2019-06-26T08:19:51.771Z,24.10
2019-06-26T08:22:26.322Z,24.00
2019-06-26T08:25:01.351Z,23.80
2019-06-26T08:27:40.194Z,23.60
2019-06-26T08:30:15.605Z,23.50
2019-06-26T08:32:53.081Z,23.40
2019-06-26T08:35:27.491Z,23.30
2019-06-26T08:38:10.244Z,23.20
2019-06-26T08:40:38.465Z,23.20
2019-06-26T08:43:12.803Z,23.20
2019-06-26T08:45:48.785Z,23.20
2019-06-26T08:48:38.892Z,23.20
2019-06-26T08:51:04.166Z,23.20
2019-06-26T08:53:39.016Z,23.10
2019-06-26T08:56:14.860Z,23.10
2019-06-26T08:58:50.159Z,23.20
2019-06-26T09:01:25.537Z,23.20
2019-06-26T09:04:04.376Z,23.20
2019-06-26T09:06:39.254Z,23.20
2019-06-26T09:09:13.753Z,23.20
2019-06-26T09:11:48.296Z,23.20
2019-06-26T09:14:24.610Z,23.10
2019-06-26T09:16:58.978Z,23.20
2019-06-26T09:19:37.640Z,23.30
2019-06-26T09:22:12.049Z,23.40
2019-06-26T09:24:46.672Z,23.50
2019-06-26T09:27:21.147Z,23.60
2019-06-26T09:29:57.157Z,23.60
2019-06-26T09:32:31.932Z,23.80
2019-06-26T09:35:06.884Z,23.90
2019-06-26T09:37:42.515Z,24.00
2019-06-26T09:40:18.116Z,24.10
2019-06-26T09:42:54.206Z,24.20
2019-06-26T09:45:28.889Z,24.30
2019-06-26T09:48:03.415Z,24.20
2019-06-26T09:50:38.199Z,24.20
2019-06-26T09:53:12.675Z,24.20
2019-06-26T09:55:48.472Z,24.10
2019-06-26T09:58:22.976Z,24.00
2019-06-26T10:00:57.307Z,23.90
2019-06-26T10:03:33.619Z,23.80
2019-06-26T10:06:09.477Z,23.70
2019-06-26T10:08:45.234Z,23.70
2019-06-26T10:11:21.027Z,23.60
2019-06-26T10:13:55.982Z,23.50
2019-06-26T10:16:31.426Z,23.40
2019-06-26T10:19:10.531Z,23.30
2019-06-26T10:21:43.198Z,23.40
2019-06-26T10:24:17.787Z,23.40
2019-06-26T10:26:53.401Z,23.40
2019-06-26T10:29:30.868Z,23.40
2019-06-26T10:32:05.264Z,23.40
2019-06-26T10:34:39.910Z,23.50
2019-06-26T10:37:14.523Z,23.50
2019-06-26T10:39:49.140Z,23.50
2019-06-26T10:42:24.912Z,23.50
2019-06-26T10:44:59.490Z,23.60
2019-06-26T10:47:34.326Z,23.60
2019-06-26T10:50:11.660Z,23.50
2019-06-26T10:52:46.714Z,23.40
2019-06-26T10:55:22.255Z,23.30
2019-06-26T10:57:57.113Z,23.30
2019-06-26T11:00:32.822Z,23.20
2019-06-26T11:03:07.594Z,23.20
2019-06-26T11:05:41.940Z,23.30
2019-06-26T11:08:17.878Z,23.40
2019-06-26T11:10:52.357Z,23.50
2019-06-26T11:13:31.025Z,23.50
2019-06-26T11:16:05.508Z,23.50
2019-06-26T11:18:41.351Z,23.50
2019-06-26T11:21:15.675Z,23.60
2019-06-26T11:23:50.267Z,23.60
2019-06-26T11:26:25.073Z,23.50
2019-06-26T11:28:59.437Z,23.50
2019-06-26T11:31:33.939Z,23.50
2019-06-26T11:34:08.413Z,23.50
2019-06-26T11:36:43.306Z,23.50
2019-06-26T11:39:18.030Z,23.50
2019-06-26T11:42:14.993Z,23.40
2019-06-26T11:44:58.773Z,23.40
2019-06-26T11:47:33.227Z,23.40
2019-06-26T11:50:09.814Z,23.30
2019-06-26T11:52:44.863Z,23.30
2019-06-26T11:55:20.786Z,23.40
2019-06-26T11:57:55.237Z,23.40
2019-06-26T12:00:31.132Z,23.30
2019-06-26T12:03:06.390Z,23.30
2019-06-26T12:05:41.069Z,23.30
2019-06-26T12:08:18.514Z,23.30
2019-06-26T12:10:53.896Z,23.30
2019-06-26T12:13:28.286Z,23.30
2019-06-26T12:16:05.518Z,23.30
2019-06-26T12:18:41.434Z,23.20
2019-06-26T12:21:18.320Z,23.20
2019-06-26T12:23:54.505Z,23.20
2019-06-26T12:26:32.400Z,23.20
2019-06-26T12:29:06.855Z,23.10
2019-06-26T12:31:42.254Z,23.10
2019-06-26T12:34:17.731Z,23.10
2019-06-26T12:36:52.180Z,23.10
2019-06-26T12:39:27.783Z,23.10
2019-06-26T12:42:06.606Z,23.00
2019-06-26T12:44:43.630Z,23.00
2019-06-26T12:47:19.085Z,23.00
2019-06-26T12:49:59.809Z,23.00
2019-06-26T12:52:45.205Z,23.00
2019-06-26T12:55:21.630Z,22.90
2019-06-26T12:58:11.792Z,22.90
2019-06-26T13:00:40.636Z,22.90
2019-06-26T13:03:19.727Z,22.90
2019-06-26T13:05:55.159Z,22.80
2019-06-26T13:08:30.754Z,22.80
2019-06-26T13:11:10.353Z,22.80
2019-06-26T13:14:01.360Z,22.70
2019-06-26T13:16:22.348Z,22.70
2019-06-26T13:18:58.683Z,22.70
2019-06-26T13:21:38.913Z,22.70
2019-06-26T13:24:15.123Z,22.60
2019-06-26T13:26:49.685Z,22.60
2019-06-26T13:29:25.536Z,22.60
2019-06-26T13:32:00.411Z,22.60
2019-06-26T13:34:38.059Z,22.60
2019-06-26T13:37:15.464Z,22.60
2019-06-26T13:39:50.687Z,22.60
2019-06-26T13:42:27.884Z,22.50
2019-06-26T13:45:05.627Z,22.40
2019-06-26T13:47:39.726Z,22.40
2019-06-26T13:50:17.837Z,22.30
2019-06-26T13:52:54.794Z,22.20
2019-06-26T13:55:30.543Z,22.30
2019-06-26T13:58:05.038Z,22.20
2019-06-26T14:00:52.038Z,22.30
2019-06-26T14:03:28.132Z,22.20
2019-06-26T14:06:06.576Z,22.20
2019-06-26T14:08:44.139Z,22.20
2019-06-26T14:11:22.418Z,22.20
2019-06-26T14:14:01.075Z,22.10
2019-06-26T14:16:37.490Z,22.20
2019-06-26T14:19:14.459Z,22.10
2019-06-26T14:21:54.795Z,22.10
2019-06-26T14:24:30.169Z,22.10
2019-06-26T14:27:08.819Z,22.00
2019-06-26T14:29:44.524Z,21.80
2019-06-26T14:32:22.138Z,21.70
2019-06-26T14:35:01.742Z,21.60
2019-06-26T14:37:41.700Z,21.60
2019-06-26T14:40:16.261Z,21.70
2019-06-26T14:42:52.730Z,21.70
2019-06-26T14:45:27.231Z,21.70
2019-06-26T14:48:07.719Z,21.60
2019-06-26T14:50:42.287Z,21.50
2019-06-26T14:53:25.431Z,21.50
2019-06-26T14:56:03.613Z,21.50
2019-06-26T14:58:40.345Z,21.60
2019-06-26T15:01:15.073Z,21.60
2019-06-26T15:03:51.901Z,21.50
2019-06-26T15:06:29.967Z,21.50
2019-06-26T15:09:16.598Z,21.50
2019-06-26T15:11:53.285Z,21.40
2019-06-26T15:14:35.371Z,21.40
2019-06-26T15:17:13.762Z,21.40
2019-06-26T15:19:51.657Z,21.40
2019-06-26T15:22:29.170Z,21.40
2019-06-26T15:28:09.340Z,21.40
2019-06-26T15:33:53.702Z,21.50
2019-06-26T15:36:31.808Z,21.40
2019-06-26T15:39:10.202Z,21.30
2019-06-26T15:41:54.457Z,21.40
2019-06-26T15:44:32.084Z,21.40
2019-06-26T15:47:08.542Z,21.40
2019-06-26T15:52:43.067Z,21.40
2019-06-26T15:55:25.327Z,21.30
2019-06-26T15:58:14.244Z,21.40
2019-06-26T16:00:50.923Z,21.40
2019-06-26T16:03:32.929Z,21.30
2019-06-26T16:06:13.019Z,21.20
2019-06-26T16:08:55.818Z,21.20
2019-06-26T16:11:29.678Z,21.20
2019-06-26T16:14:07.174Z,21.20
2019-06-26T16:16:43.843Z,21.30
2019-06-26T16:19:22.626Z,21.30
2019-06-26T16:21:58.172Z,21.30
2019-06-26T16:24:33.746Z,21.20
2019-06-26T16:27:09.745Z,21.10
2019-06-26T16:29:48.677Z,21.20
2019-06-26T16:32:27.791Z,21.20
2019-06-26T16:35:20.016Z,21.10
2019-06-26T16:37:58.231Z,21.00
2019-06-26T16:40:44.926Z,21.00
2019-06-26T16:43:20.646Z,21.00
2019-06-26T16:45:57.937Z,20.90
2019-06-26T16:48:33.625Z,20.90
2019-06-26T16:51:13.957Z,21.00
2019-06-26T16:53:52.997Z,20.90
2019-06-26T16:56:30.415Z,20.80
2019-06-26T16:59:05.207Z,20.80
2019-06-26T17:01:42.218Z,20.80
2019-06-26T17:04:16.770Z,20.80
2019-06-26T17:06:54.379Z,20.70
2019-06-26T17:09:36.606Z,20.60
2019-06-26T17:12:13.253Z,20.60
2019-06-26T17:14:49.141Z,20.60
2019-06-26T17:17:26.882Z,20.60
2019-06-26T17:20:06.425Z,20.60
2019-06-26T17:23:01.093Z,20.60
2019-06-26T17:25:25.711Z,20.60
2019-06-26T17:28:10.087Z,20.50
2019-06-26T17:30:48.421Z,20.50
2019-06-26T17:33:24.397Z,20.40
2019-06-26T17:36:00.553Z,20.40
2019-06-26T17:38:36.045Z,20.40
2019-06-26T17:41:12.309Z,20.40
2019-06-26T17:43:48.323Z,20.40
2019-06-26T17:46:22.609Z,20.40
2019-06-26T17:48:59.369Z,20.30
2019-06-26T17:51:36.217Z,20.30
2019-06-26T17:54:14.286Z,20.30
2019-06-26T17:56:50.155Z,20.30
2019-06-26T17:59:27.516Z,20.30
2019-06-26T18:02:01.696Z,20.30
2019-06-26T18:04:37.391Z,20.30
2019-06-26T18:07:14.593Z,20.40
2019-06-26T18:09:49.032Z,20.30
2019-06-26T18:12:23.524Z,20.30
2019-06-26T18:15:00.669Z,20.30
2019-06-26T18:17:34.862Z,20.30
2019-06-26T18:20:10.595Z,20.30
2019-06-26T18:22:45.239Z,20.20
2019-06-26T18:25:20.552Z,20.30
2019-06-26T18:27:55.219Z,20.20
2019-06-26T18:30:32.911Z,20.20
2019-06-26T18:33:07.835Z,20.20
2019-06-26T18:35:42.228Z,20.10
2019-06-26T18:38:17.114Z,20.10
2019-06-26T18:40:51.757Z,20.10
2019-06-26T18:43:26.231Z,20.10
2019-06-26T18:46:02.237Z,20.00
2019-06-26T18:48:37.120Z,20.00
2019-06-26T18:51:12.111Z,20.00
2019-06-26T18:53:53.398Z,20.00
2019-06-26T18:56:23.052Z,19.90
2019-06-26T18:58:57.678Z,19.80
2019-06-26T19:01:32.312Z,19.90
2019-06-26T19:04:06.850Z,19.80
2019-06-26T19:06:41.268Z,19.90
2019-06-26T19:09:15.764Z,19.90
2019-06-26T19:11:51.422Z,19.90
2019-06-26T19:14:26.813Z,19.90
2019-06-26T19:17:02.432Z,19.90
2019-06-26T19:19:37.435Z,19.90
2019-06-26T19:22:12.886Z,19.90
2019-06-26T19:24:47.154Z,19.90
2019-06-26T19:27:21.488Z,19.80
2019-06-26T19:29:55.761Z,19.80
2019-06-26T19:32:30.043Z,19.70
2019-06-26T19:35:20.222Z,19.60
2019-06-26T19:37:40.212Z,19.50
2019-06-26T19:40:14.880Z,19.50
2019-06-26T19:42:49.423Z,19.50
2019-06-26T19:45:23.924Z,19.50
2019-06-26T19:47:58.514Z,19.50
2019-06-26T19:50:33.292Z,19.40
2019-06-26T19:53:08.809Z,19.40
2019-06-26T19:55:43.248Z,19.40
2019-06-26T19:58:21.332Z,19.40
2019-06-26T20:00:53.382Z,19.40
2019-06-26T20:03:27.736Z,19.40
2019-06-26T20:06:02.215Z,19.40
2019-06-26T20:08:51.424Z,19.40
2019-06-26T20:11:14.042Z,19.40
2019-06-26T20:13:48.583Z,19.40
2019-06-26T20:16:22.912Z,19.30
2019-06-26T20:18:57.315Z,19.40
2019-06-26T20:21:31.718Z,19.40
2019-06-26T20:24:06.260Z,19.30
2019-06-26T20:26:42.543Z,19.30
2019-06-26T20:29:19.901Z,19.30
2019-06-26T20:31:54.160Z,19.20
2019-06-26T20:34:28.622Z,19.10
2019-06-26T20:37:04.212Z,19.10
2019-06-26T20:39:39.089Z,19.10
2019-06-26T20:42:13.443Z,19.10
2019-06-26T20:44:48.782Z,19.10
2019-06-26T20:47:23.106Z,19.10
2019-06-26T20:49:57.599Z,19.10
2019-06-26T20:52:31.905Z,19.10
2019-06-26T20:55:06.748Z,19.10
2019-06-26T20:57:42.042Z,19.00
2019-06-26T21:00:16.858Z,19.00
2019-06-26T21:02:54.177Z,18.90
2019-06-26T21:05:28.914Z,18.90
2019-06-26T21:08:03.355Z,18.80
2019-06-26T21:10:37.865Z,18.80
2019-06-26T21:13:12.530Z,18.80
2019-06-26T21:15:46.757Z,18.80
2019-06-26T21:18:22.454Z,18.90
2019-06-26T21:20:57.768Z,18.80
2019-06-26T21:23:32.123Z,18.80
2019-06-26T21:26:06.845Z,18.80
2019-06-26T21:28:42.531Z,18.80
2019-06-26T21:31:16.879Z,18.80
2019-06-26T21:33:51.196Z,18.80
2019-06-26T21:36:26.611Z,18.80
2019-06-26T21:39:04.962Z,18.80
2019-06-26T21:41:37.890Z,18.80
2019-06-26T21:44:12.290Z,18.80
2019-06-26T21:46:48.699Z,18.70
2019-06-26T21:49:23.080Z,18.70
2019-06-26T21:51:57.371Z,18.70
2019-06-26T21:54:31.924Z,18.70
2019-06-26T21:57:24.043Z,18.60
2019-06-26T22:00:17.286Z,18.60
2019-06-26T22:03:09.410Z,18.60
2019-06-26T22:05:44.960Z,18.60
2019-06-26T22:08:23.853Z,18.60
2019-06-26T22:11:05.294Z,18.60
2019-06-26T22:13:39.590Z,18.60
2019-06-26T22:16:13.986Z,18.60
2019-06-26T22:18:48.759Z,18.70
2019-06-26T22:21:23.088Z,18.70
2019-06-26T22:23:57.490Z,18.60
2019-06-26T22:26:31.984Z,18.60
2019-06-26T22:29:06.331Z,18.60
2019-06-26T22:31:40.570Z,18.60
2019-06-26T22:34:18.347Z,18.70
2019-06-26T22:36:52.780Z,18.70
2019-06-26T22:39:27.063Z,18.70
2019-06-26T22:42:01.504Z,18.70
2019-06-26T22:44:36.032Z,18.70
2019-06-26T22:47:11.340Z,18.70
2019-06-26T22:49:45.744Z,18.60
2019-06-26T22:52:20.148Z,18.70
2019-06-26T22:54:54.654Z,18.70
2019-06-26T22:57:29.142Z,18.60
2019-06-26T23:00:03.609Z,18.70
2019-06-26T23:02:39.133Z,18.70
2019-06-26T23:05:13.818Z,18.70
2019-06-26T23:07:48.202Z,18.80
2019-06-26T23:10:22.649Z,18.80
2019-06-26T23:12:57.379Z,18.80
2019-06-26T23:15:31.713Z,18.90
2019-06-26T23:18:07.141Z,18.90
2019-06-26T23:20:41.732Z,18.90
2019-06-26T23:23:16.281Z,18.90
2019-06-26T23:25:50.861Z,19.00
2019-06-26T23:28:25.199Z,18.90
2019-06-26T23:30:59.760Z,19.00
2019-06-26T23:33:34.588Z,19.00
2019-06-26T23:36:10.082Z,19.00
2019-06-26T23:38:45.650Z,19.00
2019-06-26T23:41:20.016Z,19.00
2019-06-26T23:43:54.529Z,19.00
2019-06-26T23:46:28.965Z,18.90
2019-06-26T23:49:03.444Z,19.00
2019-06-26T23:51:37.751Z,19.00
2019-06-26T23:54:12.215Z,19.00
2019-06-26T23:56:46.593Z,19.10
2019-06-26T23:59:21.004Z,19.10
